createdAt,value
2023-04-24T00:02:17.882Z,8.90
2023-04-24T00:04:48.130Z,17.23
2023-04-24T00:07:17.169Z,9.40
2023-04-24T00:09:45.298Z,9.93
2023-04-24T00:12:12.819Z,11.43
2023-04-24T00:14:40.300Z,9.03
2023-04-24T00:17:07.824Z,9.33
2023-04-24T00:19:35.404Z,11.80
2023-04-24T00:22:03.648Z,10.40
2023-04-24T00:24:31.044Z,12.17
2023-04-24T00:26:58.701Z,9.97
2023-04-24T00:29:26.172Z,9.30
2023-04-24T00:31:53.608Z,11.30
2023-04-24T00:34:20.982Z,10.00
2023-04-24T00:36:49.888Z,10.83
2023-04-24T00:39:17.263Z,9.33
2023-04-24T00:41:44.709Z,9.20
2023-04-24T00:44:12.119Z,13.50
2023-04-24T00:46:39.582Z,10.07
2023-04-24T00:49:07.045Z,9.80
2023-04-24T00:51:35.719Z,11.07
2023-04-24T00:54:06.598Z,9.90
2023-04-24T00:56:34.280Z,10.37
2023-04-24T00:59:05.528Z,10.07
2023-04-24T01:01:33.766Z,9.10
2023-04-24T01:04:03.305Z,11.53
2023-04-24T01:06:33.553Z,10.53
2023-04-24T01:09:04.501Z,9.63
2023-04-24T01:11:32.152Z,9.80
2023-04-24T01:13:59.782Z,10.70
2023-04-24T01:16:27.287Z,12.53
2023-04-24T01:18:54.790Z,10.23
2023-04-24T01:21:22.974Z,10.70
2023-04-24T01:23:50.558Z,13.03
2023-04-24T01:26:20.612Z,9.80
2023-04-24T01:28:49.103Z,12.37
2023-04-24T01:31:16.784Z,14.23
2023-04-24T01:33:44.262Z,12.53
2023-04-24T01:36:12.822Z,10.80
2023-04-24T01:38:40.307Z,10.67
2023-04-24T01:41:11.829Z,11.67
2023-04-24T01:43:39.245Z,13.60
2023-04-24T01:46:07.443Z,9.13
2023-04-24T01:48:35.198Z,10.20
2023-04-24T01:51:07.133Z,9.23
2023-04-24T01:53:34.532Z,12.70
2023-04-24T01:56:02.298Z,9.80
2023-04-24T01:58:29.880Z,9.80
2023-04-24T02:01:00.028Z,9.30
2023-04-24T02:03:28.169Z,8.70
2023-04-24T02:05:55.823Z,8.80
2023-04-24T02:08:23.224Z,11.87
2023-04-24T02:10:51.578Z,8.53
2023-04-24T02:13:18.970Z,7.43
2023-04-24T02:15:46.370Z,9.00
2023-04-24T02:18:13.879Z,7.80
2023-04-24T02:20:41.244Z,8.00
2023-04-24T02:23:08.958Z,9.27
2023-04-24T02:25:36.344Z,9.23
2023-04-24T02:28:03.741Z,10.30
2023-04-24T02:30:31.841Z,8.07
2023-04-24T02:32:59.232Z,7.97
2023-04-24T02:35:26.757Z,10.03
2023-04-24T02:37:54.125Z,8.73
2023-04-24T02:40:21.767Z,8.50
2023-04-24T02:42:49.182Z,10.90
2023-04-24T02:45:16.903Z,8.67
2023-04-24T02:47:44.328Z,7.90
2023-04-24T02:50:11.718Z,7.73
2023-04-24T02:52:39.120Z,7.63
2023-04-24T02:55:06.768Z,9.13
2023-04-24T02:57:34.160Z,8.43
2023-04-24T03:02:35.049Z,8.77
2023-04-24T03:05:03.413Z,10.47
2023-04-24T03:07:31.865Z,8.00
2023-04-24T03:09:59.314Z,8.57
2023-04-24T03:12:26.909Z,8.50
2023-04-24T03:14:54.336Z,8.13
2023-04-24T03:17:21.728Z,8.40
2023-04-24T03:19:49.158Z,9.30
2023-04-24T03:22:16.549Z,8.77
2023-04-24T03:24:43.945Z,9.20
2023-04-24T03:27:11.381Z,8.40
2023-04-24T03:29:38.799Z,8.90
2023-04-24T03:32:06.206Z,8.27
2023-04-24T03:34:33.574Z,9.80
2023-04-24T03:39:34.235Z,9.30
2023-04-24T03:42:11.719Z,9.63
2023-04-24T03:44:39.124Z,8.60
2023-04-24T03:47:10.786Z,11.67
2023-04-24T03:49:38.185Z,8.20
2023-04-24T03:52:05.671Z,8.10
2023-04-24T03:54:33.081Z,12.33
2023-04-24T03:57:00.747Z,9.03
2023-04-24T03:59:28.202Z,9.70
2023-04-24T04:01:55.885Z,11.57
2023-04-24T04:04:23.366Z,8.23
2023-04-24T04:06:50.971Z,8.97
2023-04-24T04:09:18.386Z,10.53
2023-04-24T04:11:46.066Z,7.97
2023-04-24T04:14:13.479Z,8.50
2023-04-24T04:16:40.920Z,8.30
2023-04-24T04:19:08.312Z,8.30
2023-04-24T04:21:35.702Z,8.10
2023-04-24T04:24:03.104Z,10.60
2023-04-24T04:26:32.167Z,8.70
2023-04-24T04:29:01.423Z,8.63
2023-04-24T04:31:28.975Z,10.30
2023-04-24T04:33:56.333Z,10.90
2023-04-24T04:36:24.794Z,9.00
2023-04-24T04:38:52.226Z,10.63
2023-04-24T04:41:19.865Z,11.43
2023-04-24T04:43:48.443Z,8.57
2023-04-24T04:46:18.722Z,9.20
2023-04-24T04:48:46.561Z,9.60
2023-04-24T04:51:13.909Z,10.77
2023-04-24T04:53:41.278Z,8.80
2023-04-24T04:56:08.756Z,9.60
2023-04-24T04:58:36.978Z,8.63
2023-04-24T05:01:09.626Z,9.63
2023-04-24T05:03:37.447Z,9.43
2023-04-24T05:06:08.528Z,9.07
2023-04-24T05:08:35.892Z,9.07
2023-04-24T05:11:09.870Z,9.80
2023-04-24T05:13:40.854Z,11.63
2023-04-24T05:16:06.225Z,9.50
2023-04-24T05:18:33.611Z,8.60
2023-04-24T05:21:01.048Z,9.03
2023-04-24T05:23:28.447Z,8.60
2023-04-24T05:25:56.313Z,11.30
2023-04-24T05:28:23.760Z,8.90
2023-04-24T05:30:51.139Z,13.87
2023-04-24T05:33:18.545Z,9.30
2023-04-24T05:35:47.371Z,10.63
2023-04-24T05:38:15.133Z,10.90
2023-04-24T05:40:42.529Z,10.57
2023-04-24T05:43:10.094Z,10.00
2023-04-24T05:45:37.498Z,13.77
2023-04-24T05:48:10.622Z,12.80
2023-04-24T05:50:37.969Z,11.60
2023-04-24T05:53:07.117Z,10.37
2023-04-24T05:55:34.509Z,10.87
2023-04-24T06:00:34.764Z,12.70
2023-04-24T06:03:05.983Z,11.47
2023-04-24T06:05:33.668Z,14.07
2023-04-24T06:08:01.048Z,14.60
2023-04-24T06:10:28.459Z,12.60
2023-04-24T06:12:57.450Z,13.80
2023-04-24T06:15:24.846Z,13.00
2023-04-24T06:17:52.349Z,12.10
2023-04-24T06:20:19.790Z,12.60
2023-04-24T06:22:47.262Z,13.80
2023-04-24T06:25:15.150Z,12.83
2023-04-24T06:27:42.592Z,12.07
2023-04-24T06:30:10.475Z,13.23
2023-04-24T06:32:37.923Z,11.50
2023-04-24T06:35:05.645Z,12.30
2023-04-24T06:37:33.304Z,11.07
2023-04-24T06:40:08.348Z,12.47
2023-04-24T06:42:35.897Z,13.23
2023-04-24T06:45:09.275Z,11.67
2023-04-24T06:47:36.676Z,13.10
2023-04-24T06:50:05.996Z,11.77
2023-04-24T06:52:33.768Z,10.80
2023-04-24T06:55:07.746Z,11.53
2023-04-24T06:57:35.121Z,13.73
2023-04-24T07:00:08.545Z,10.90
2023-04-24T07:02:36.055Z,11.40
2023-04-24T07:05:09.704Z,12.77
2023-04-24T07:07:38.732Z,10.70
2023-04-24T07:10:06.745Z,12.10
2023-04-24T07:12:34.117Z,10.10
2023-04-24T07:17:36.150Z,9.90
2023-04-24T07:20:04.062Z,12.07
2023-04-24T07:22:31.450Z,9.40
2023-04-24T07:24:58.852Z,12.47
2023-04-24T07:27:26.538Z,9.50
2023-04-24T07:29:53.903Z,9.73
2023-04-24T07:32:21.281Z,10.77
2023-04-24T07:34:48.684Z,10.27
2023-04-24T07:37:16.069Z,10.00
2023-04-24T07:39:43.601Z,9.67
2023-04-24T07:42:11.155Z,12.00
2023-04-24T07:44:38.563Z,10.17
2023-04-24T07:47:05.958Z,10.17
2023-04-24T07:49:35.110Z,10.40
2023-04-24T07:52:03.343Z,10.90
2023-04-24T07:54:30.956Z,11.10
2023-04-24T07:56:58.365Z,11.07
2023-04-24T07:59:26.267Z,10.30
2023-04-24T08:01:54.924Z,9.60
2023-04-24T08:04:22.424Z,10.13
2023-04-24T08:06:50.019Z,9.90
2023-04-24T08:09:17.393Z,10.30
2023-04-24T08:11:45.320Z,8.93
2023-04-24T08:14:14.099Z,10.97
2023-04-24T08:16:41.575Z,9.80
2023-04-24T08:19:09.201Z,9.83
2023-04-24T08:21:36.569Z,8.80
2023-04-24T08:24:06.549Z,9.73
2023-04-24T08:26:33.924Z,11.00
2023-04-24T08:31:34.608Z,8.47
2023-04-24T08:34:01.930Z,10.10
2023-04-24T08:36:43.486Z,11.07
2023-04-24T08:38:58.435Z,12.73
2023-04-24T08:41:26.966Z,11.87
2023-04-24T08:43:55.806Z,13.10
2023-04-24T08:46:24.135Z,11.20
2023-04-24T08:48:52.032Z,9.50
2023-04-24T08:51:19.849Z,8.80
2023-04-24T08:53:47.781Z,9.13
2023-04-24T08:56:15.095Z,8.50
2023-04-24T08:58:42.944Z,8.30
2023-04-24T09:01:10.767Z,8.90
2023-04-24T09:03:38.766Z,8.20
2023-04-24T09:06:07.716Z,7.90
2023-04-24T09:08:35.174Z,8.00
2023-04-24T09:13:38.173Z,10.33
2023-04-24T09:16:10.449Z,8.67
2023-04-24T09:18:37.893Z,9.27
2023-04-24T09:21:07.044Z,7.87
2023-04-24T09:23:34.506Z,9.17
2023-04-24T09:28:39.647Z,8.17
2023-04-24T09:31:08.198Z,7.90
2023-04-24T09:33:36.044Z,10.67
2023-04-24T09:36:04.223Z,9.13
2023-04-24T09:38:35.871Z,8.77
2023-04-24T09:41:08.934Z,11.30
2023-04-24T09:43:36.728Z,8.00
2023-04-24T09:46:09.141Z,8.07
2023-04-24T09:48:38.138Z,8.00
2023-04-24T09:51:08.144Z,12.37
2023-04-24T09:53:35.571Z,7.60
2023-04-24T09:56:10.623Z,8.17
2023-04-24T09:58:38.380Z,10.13
2023-04-24T10:01:09.615Z,8.07
2023-04-24T10:03:36.993Z,8.60
2023-04-24T10:06:10.441Z,8.27
2023-04-24T10:08:38.903Z,8.30
2023-04-24T10:11:08.267Z,7.13
2023-04-24T10:13:36.274Z,9.67
2023-04-24T10:18:38.144Z,7.50
2023-04-24T10:21:08.281Z,7.53
2023-04-24T10:23:35.912Z,7.40
2023-04-24T10:26:09.274Z,7.13
2023-04-24T10:28:38.132Z,7.20
2023-04-24T10:31:05.716Z,7.87
2023-04-24T10:33:33.545Z,8.03
2023-04-24T10:36:06.273Z,8.13
2023-04-24T10:38:33.882Z,7.93
2023-04-24T10:41:08.953Z,8.67
2023-04-24T10:43:37.132Z,8.00
2023-04-24T10:46:05.341Z,8.00
2023-04-24T10:48:33.267Z,7.57
2023-04-24T10:51:00.653Z,8.40
2023-04-24T10:53:31.760Z,7.60
2023-04-24T10:56:07.083Z,7.77
2023-04-24T10:58:39.238Z,9.00
2023-04-24T11:01:08.970Z,8.30
2023-04-24T11:03:37.530Z,10.73
2023-04-24T11:06:09.106Z,9.33
2023-04-24T11:08:40.472Z,10.03
2023-04-24T11:11:14.763Z,8.60
2023-04-24T11:13:58.569Z,9.00
2023-04-24T11:16:33.968Z,10.20
2023-04-24T11:19:02.727Z,10.23
2023-04-24T11:21:46.746Z,9.10
2023-04-24T11:24:25.334Z,10.63
2023-04-24T11:27:11.208Z,9.37
2023-04-24T11:29:42.494Z,9.20
2023-04-24T11:32:26.790Z,12.67
2023-04-24T11:34:55.807Z,9.40
2023-04-24T11:37:24.622Z,9.40
2023-04-24T11:39:52.955Z,8.90
2023-04-24T11:42:21.514Z,9.27
2023-04-24T11:44:49.382Z,9.20
2023-04-24T11:47:16.793Z,10.40
2023-04-24T11:49:44.186Z,11.90
2023-04-24T11:52:11.831Z,11.43
2023-04-24T11:54:39.202Z,13.50
2023-04-24T11:57:10.006Z,11.40
2023-04-24T11:59:38.644Z,9.57
2023-04-24T12:02:07.527Z,9.83
2023-04-24T12:04:41.993Z,10.03
2023-04-24T12:07:10.309Z,11.47
2023-04-24T12:09:48.429Z,9.83
2023-04-24T12:12:17.627Z,9.90
2023-04-24T12:14:46.542Z,11.33
2023-04-24T12:17:13.957Z,10.97
2023-04-24T12:19:42.863Z,11.10
2023-04-24T12:22:10.272Z,12.00
2023-04-24T12:24:39.208Z,10.30
2023-04-24T12:27:06.587Z,16.27
2023-04-24T12:29:33.991Z,14.57
2023-04-24T12:32:01.835Z,11.03
2023-04-24T12:34:29.238Z,11.50
2023-04-24T12:36:56.644Z,12.27
2023-04-24T12:39:25.699Z,11.10
2023-04-24T12:41:54.626Z,13.67
2023-04-24T12:44:22.010Z,12.53
2023-04-24T12:46:49.428Z,11.73
2023-04-24T12:49:16.798Z,11.00
2023-04-24T12:51:44.219Z,12.93
2023-04-24T12:54:12.665Z,13.60
2023-04-24T12:56:40.332Z,14.47
2023-04-24T12:59:07.965Z,13.53
2023-04-24T13:01:35.522Z,13.03
2023-04-24T13:04:05.989Z,16.03
2023-04-24T13:06:33.506Z,12.00
2023-04-24T13:09:01.062Z,11.53
2023-04-24T13:11:29.513Z,11.10
2023-04-24T13:13:56.902Z,11.50
2023-04-24T13:16:24.431Z,12.87
2023-04-24T13:18:51.843Z,14.27
2023-04-24T13:21:19.265Z,12.90
2023-04-24T13:23:46.670Z,13.37
2023-04-24T13:26:14.092Z,12.30
2023-04-24T13:28:41.457Z,14.10
2023-04-24T13:31:09.565Z,14.20
2023-04-24T13:33:37.090Z,15.77
2023-04-24T13:36:06.613Z,13.53
2023-04-24T13:38:33.973Z,12.77
2023-04-24T13:43:34.939Z,12.97
2023-04-24T13:46:05.415Z,15.40
2023-04-24T13:48:32.815Z,12.67
2023-04-24T13:51:00.268Z,11.23
2023-04-24T13:53:27.625Z,14.33
2023-04-24T13:55:55.495Z,10.87
2023-04-24T13:58:22.872Z,11.83
2023-04-24T14:00:50.318Z,12.43
2023-04-24T14:03:17.875Z,12.93
2023-04-24T14:05:45.447Z,11.87
2023-04-24T14:08:12.839Z,11.50
2023-04-24T14:10:40.556Z,11.43
2023-04-24T14:13:08.615Z,11.80
2023-04-24T14:15:37.388Z,11.80
2023-04-24T14:18:06.231Z,12.73
2023-04-24T14:20:33.906Z,13.13
2023-04-24T14:23:01.375Z,14.93
2023-04-24T14:25:28.753Z,10.50
2023-04-24T14:27:56.549Z,11.73
2023-04-24T14:30:23.994Z,12.13
2023-04-24T14:32:51.437Z,12.17
2023-04-24T14:35:19.039Z,14.03
2023-04-24T14:37:46.411Z,11.73
2023-04-24T14:40:29.862Z,10.97
2023-04-24T14:42:42.781Z,11.63
2023-04-24T14:45:11.386Z,11.23
2023-04-24T14:47:39.132Z,11.87
2023-04-24T14:50:07.085Z,12.13
2023-04-24T14:52:34.525Z,10.87
2023-04-24T14:55:01.908Z,11.93
2023-04-24T14:57:29.293Z,10.93
2023-04-24T14:59:56.691Z,11.77
2023-04-24T15:02:24.343Z,11.30
2023-04-24T15:04:52.039Z,12.00
2023-04-24T15:07:19.544Z,13.93
2023-04-24T15:09:48.191Z,11.53
2023-04-24T15:12:16.192Z,12.30
2023-04-24T15:14:43.660Z,13.13
2023-04-24T15:17:12.382Z,15.23
2023-04-24T15:19:39.758Z,11.10
2023-04-24T15:22:09.264Z,10.80
2023-04-24T15:24:36.689Z,11.60
2023-04-24T15:27:08.310Z,12.50
2023-04-24T15:29:36.027Z,13.87
2023-04-24T15:32:10.436Z,11.70
2023-04-24T15:34:38.006Z,10.63
2023-04-24T15:37:09.734Z,12.30
2023-04-24T15:39:37.144Z,12.70
2023-04-24T15:42:10.424Z,12.40
2023-04-24T15:44:37.825Z,11.40
2023-04-24T15:47:05.199Z,10.23
2023-04-24T15:49:33.236Z,11.83
2023-04-24T15:54:34.229Z,10.57
2023-04-24T15:57:03.256Z,10.30
2023-04-24T15:59:30.973Z,9.50
2023-04-24T16:01:58.398Z,12.30
2023-04-24T16:04:25.938Z,11.10
2023-04-24T16:06:53.946Z,10.40
2023-04-24T16:09:21.343Z,10.87
2023-04-24T16:11:49.124Z,13.10
2023-04-24T16:14:16.522Z,13.80
2023-04-24T16:16:43.918Z,12.47
2023-04-24T16:19:11.300Z,10.47
2023-04-24T16:21:38.713Z,13.73
2023-04-24T16:24:12.559Z,11.07
2023-04-24T16:26:40.419Z,10.43
2023-04-24T16:29:14.275Z,10.90
2023-04-24T16:31:41.990Z,12.03
2023-04-24T16:34:09.632Z,11.63
2023-04-24T16:36:37.016Z,11.67
2023-04-24T16:39:05.226Z,11.93
2023-04-24T16:41:32.653Z,12.03
2023-04-24T16:44:00.093Z,13.00
2023-04-24T16:46:27.504Z,10.87
2023-04-24T16:48:55.395Z,9.87
2023-04-24T16:51:22.805Z,9.93
2023-04-24T16:53:50.168Z,9.50
2023-04-24T16:56:17.545Z,9.40
2023-04-24T16:58:45.011Z,12.53
2023-04-24T17:01:12.484Z,10.40
2023-04-24T17:03:41.166Z,10.50
2023-04-24T17:06:08.723Z,10.60
2023-04-24T17:08:36.231Z,11.97
2023-04-24T17:11:03.901Z,10.37
2023-04-24T17:13:32.043Z,10.20
2023-04-24T17:15:59.392Z,16.50
2023-04-24T17:18:26.936Z,13.07
2023-04-24T17:20:54.364Z,13.27
2023-04-24T17:23:21.801Z,11.00
2023-04-24T17:25:49.570Z,12.50
2023-04-24T17:28:27.594Z,12.00
2023-04-24T17:30:56.894Z,12.50
2023-04-24T17:33:30.984Z,11.00
2023-04-24T17:36:00.323Z,10.80
2023-04-24T17:38:28.392Z,14.93
2023-04-24T17:40:55.949Z,13.70
2023-04-24T17:43:24.110Z,10.60
2023-04-24T17:45:52.081Z,10.60
2023-04-24T17:48:19.850Z,11.40
2023-04-24T17:50:47.929Z,10.43
2023-04-24T17:53:15.694Z,10.40
2023-04-24T17:55:47.490Z,11.87
2023-04-24T17:58:15.423Z,10.53
2023-04-24T18:00:43.034Z,13.00
2023-04-24T18:03:10.794Z,12.90
2023-04-24T18:05:39.202Z,11.07
2023-04-24T18:08:07.220Z,10.47
2023-04-24T18:10:36.629Z,11.60
2023-04-24T18:13:04.388Z,14.80
2023-04-24T18:15:31.960Z,11.73
2023-04-24T18:17:59.524Z,13.00
2023-04-24T18:20:27.381Z,14.67
2023-04-24T18:22:54.879Z,12.70
2023-04-24T18:25:23.883Z,13.60
2023-04-24T18:27:51.283Z,12.33
2023-04-24T18:30:18.676Z,13.00
2023-04-24T18:32:46.117Z,11.57
2023-04-24T18:35:13.442Z,11.40
2023-04-24T18:37:40.864Z,12.87
2023-04-24T18:40:08.868Z,11.50
2023-04-24T18:42:36.254Z,13.07
2023-04-24T18:45:04.599Z,17.70
2023-04-24T18:47:32.038Z,13.80
2023-04-24T18:49:59.385Z,12.23
2023-04-24T18:52:27.074Z,11.73
2023-04-24T18:54:54.536Z,14.10
2023-04-24T18:57:21.903Z,13.40
2023-04-24T18:59:49.369Z,15.97
2023-04-24T19:02:16.907Z,15.00
2023-04-24T19:04:44.326Z,13.70
2023-04-24T19:07:11.776Z,13.73
2023-04-24T19:09:39.193Z,12.60
2023-04-24T19:12:07.103Z,12.50
2023-04-24T19:14:34.513Z,15.93
2023-04-24T19:17:01.891Z,13.27
2023-04-24T19:19:31.135Z,14.93
2023-04-24T19:21:58.514Z,13.70
2023-04-24T19:24:27.532Z,13.33
2023-04-24T19:26:56.467Z,13.37
2023-04-24T19:29:23.877Z,14.10
2023-04-24T19:31:52.700Z,13.33
2023-04-24T19:34:20.404Z,13.03
2023-04-24T19:36:47.791Z,15.90
2023-04-24T19:39:15.533Z,14.80
2023-04-24T19:41:43.036Z,13.70
2023-04-24T19:44:10.439Z,14.10
2023-04-24T19:46:39.732Z,16.13
2023-04-24T19:49:07.188Z,13.27
2023-04-24T19:51:35.926Z,12.40
2023-04-24T19:54:07.065Z,12.57
2023-04-24T19:56:34.538Z,14.07
2023-04-24T19:59:01.935Z,13.37
2023-04-24T20:01:32.416Z,15.60
2023-04-24T20:04:00.074Z,13.30
2023-04-24T20:06:27.521Z,14.23
2023-04-24T20:08:54.930Z,14.33
2023-04-24T20:11:22.297Z,12.87
2023-04-24T20:13:49.700Z,16.20
2023-04-24T20:16:17.137Z,13.77
2023-04-24T20:18:44.669Z,14.80
2023-04-24T20:21:12.046Z,13.50
2023-04-24T20:23:39.701Z,14.90
2023-04-24T20:26:12.153Z,14.23
2023-04-24T20:28:40.206Z,14.17
2023-04-24T20:31:07.640Z,14.50
2023-04-24T20:33:36.660Z,14.10
2023-04-24T20:36:04.113Z,14.87
2023-04-24T20:38:31.505Z,13.73
2023-04-24T20:40:59.975Z,14.23
2023-04-24T20:43:28.894Z,15.00
2023-04-24T20:45:58.297Z,14.77
2023-04-24T20:48:26.790Z,14.53
2023-04-24T20:50:54.702Z,14.77
2023-04-24T20:53:22.202Z,16.33
2023-04-24T20:55:49.603Z,16.70
2023-04-24T20:58:18.529Z,14.97
2023-04-24T21:00:46.673Z,17.07
2023-04-24T21:03:14.204Z,15.70
2023-04-24T21:05:41.701Z,16.23
2023-04-24T21:08:09.108Z,16.40
2023-04-24T21:10:36.477Z,15.17
2023-04-24T21:13:03.895Z,15.93
2023-04-24T21:15:31.391Z,15.17
2023-04-24T21:17:58.833Z,16.67
2023-04-24T21:20:26.173Z,17.10
2023-04-24T21:22:53.556Z,17.07
2023-04-24T21:25:21.206Z,14.47
2023-04-24T21:27:48.933Z,18.83
2023-04-24T21:30:16.435Z,17.70
2023-04-24T21:32:43.840Z,18.03
2023-04-24T21:35:11.216Z,15.30
2023-04-24T21:37:40.092Z,16.40
2023-04-24T21:40:08.334Z,15.03
2023-04-24T21:42:36.518Z,17.90
2023-04-24T21:45:04.469Z,16.77
2023-04-24T21:47:32.169Z,21.70
2023-04-24T21:49:59.707Z,17.10
2023-04-24T21:52:27.134Z,16.97
2023-04-24T21:54:54.621Z,17.10
2023-04-24T21:57:22.106Z,16.80
2023-04-24T21:59:49.554Z,18.40
2023-04-24T22:02:21.326Z,16.13
2023-04-24T22:04:50.163Z,15.40
2023-04-24T22:07:17.910Z,17.47
2023-04-24T22:09:45.679Z,16.60
2023-04-24T22:12:13.100Z,17.20
2023-04-24T22:14:41.278Z,17.70
2023-04-24T22:17:10.351Z,18.40
2023-04-24T22:19:38.206Z,17.47
2023-04-24T22:22:05.595Z,18.43
2023-04-24T22:24:32.994Z,17.70
2023-04-24T22:27:00.423Z,17.93
2023-04-24T22:29:27.816Z,16.53
2023-04-24T22:31:56.505Z,19.00
2023-04-24T22:34:23.946Z,17.53
2023-04-24T22:36:51.351Z,18.30
2023-04-24T22:39:20.050Z,17.40
2023-04-24T22:41:47.840Z,15.47
2023-04-24T22:44:15.319Z,17.10
2023-04-24T22:46:42.812Z,15.50
2023-04-24T22:49:10.214Z,15.60
2023-04-24T22:51:37.653Z,15.70
2023-04-24T22:54:05.403Z,17.17
2023-04-24T22:56:33.436Z,17.87
2023-04-24T22:59:00.855Z,13.40
2023-04-24T23:01:28.354Z,14.73
2023-04-24T23:03:55.809Z,14.80
2023-04-24T23:06:23.325Z,15.53
2023-04-24T23:08:50.858Z,15.13
2023-04-24T23:11:19.728Z,15.93
2023-04-24T23:13:47.352Z,17.30
2023-04-24T23:16:18.703Z,16.10
2023-04-24T23:18:46.172Z,16.90
2023-04-24T23:21:13.555Z,14.50
2023-04-24T23:23:40.964Z,13.90
2023-04-24T23:26:08.336Z,13.60
2023-04-24T23:28:37.309Z,15.13
2023-04-24T23:31:04.724Z,16.70
2023-04-24T23:33:32.131Z,14.27
2023-04-24T23:35:59.516Z,15.60
2023-04-24T23:38:28.701Z,16.57
2023-04-24T23:40:55.923Z,15.80
2023-04-24T23:43:23.282Z,13.37
2023-04-24T23:45:50.700Z,16.43
2023-04-24T23:48:18.150Z,17.07
2023-04-24T23:50:45.815Z,14.73
2023-04-24T23:53:13.241Z,21.17
2023-04-24T23:55:40.688Z,21.50
2023-04-24T23:58:08.086Z,19.67
